sensor_id;sensor_type;location;lat;lon;timestamp;temperature;humidity
9885;DHT22;4981;50.966;4.842;2022-12-07T00:00:54;4.60;1.00
9885;DHT22;4981;50.966;4.842;2022-12-07T00:03:21;4.60;1.00
9885;DHT22;4981;50.966;4.842;2022-12-07T00:05:48;4.50;1.00
9885;DHT22;4981;50.966;4.842;2022-12-07T00:08:15;4.50;1.00
9885;DHT22;4981;50.966;4.842;2022-12-07T00:10:43;4.60;1.00
9885;DHT22;4981;50.966;4.842;2022-12-07T00:13:11;4.50;1.00
9885;DHT22;4981;50.966;4.842;2022-12-07T00:15:38;4.50;1.00
9885;DHT22;4981;50.966;4.842;2022-12-07T00:18:05;4.60;1.00
9885;DHT22;4981;50.966;4.842;2022-12-07T00:20:32;4.50;1.00
9885;DHT22;4981;50.966;4.842;2022-12-07T00:23:00;4.50;1.00
9885;DHT22;4981;50.966;4.842;2022-12-07T00:25:27;4.50;1.00
9885;DHT22;4981;50.966;4.842;2022-12-07T00:27:54;4.50;1.00
9885;DHT22;4981;50.966;4.842;2022-12-07T00:30:23;4.60;1.00
9885;DHT22;4981;50.966;4.842;2022-12-07T00:32:50;4.60;1.00
9885;DHT22;4981;50.966;4.842;2022-12-07T00:35:18;4.60;1.00
9885;DHT22;4981;50.966;4.842;2022-12-07T00:37:45;4.70;1.00
9885;DHT22;4981;50.966;4.842;2022-12-07T00:40:12;5.80;1.00
9885;DHT22;4981;50.966;4.842;2022-12-07T00:42:39;4.70;1.00
9885;DHT22;4981;50.966;4.842;2022-12-07T00:45:08;4.70;1.00
9885;DHT22;4981;50.966;4.842;2022-12-07T00:47:36;4.60;1.00
9885;DHT22;4981;50.966;4.842;2022-12-07T00:50:04;4.60;1.00
9885;DHT22;4981;50.966;4.842;2022-12-07T00:52:32;4.60;1.00
9885;DHT22;4981;50.966;4.842;2022-12-07T00:54:59;4.60;1.00
9885;DHT22;4981;50.966;4.842;2022-12-07T00:57:26;4.70;1.00
9885;DHT22;4981;50.966;4.842;2022-12-07T00:59:53;4.60;1.00
9885;DHT22;4981;50.966;4.842;2022-12-07T01:02:23;4.60;1.00
9885;DHT22;4981;50.966;4.842;2022-12-07T01:04:51;4.70;1.00
9885;DHT22;4981;50.966;4.842;2022-12-07T01:07:18;4.60;1.00
9885;DHT22;4981;50.966;4.842;2022-12-07T01:09:45;4.60;1.00
9885;DHT22;4981;50.966;4.842;2022-12-07T01:12:12;4.60;1.00
9885;DHT22;4981;50.966;4.842;2022-12-07T01:14:41;4.60;1.00
9885;DHT22;4981;50.966;4.842;2022-12-07T01:17:09;4.70;1.00
9885;DHT22;4981;50.966;4.842;2022-12-07T01:19:36;4.60;1.00
9885;DHT22;4981;50.966;4.842;2022-12-07T01:22:04;4.60;1.00
9885;DHT22;4981;50.966;4.842;2022-12-07T01:24:32;4.60;1.00
9885;DHT22;4981;50.966;4.842;2022-12-07T01:26:59;4.50;1.00
9885;DHT22;4981;50.966;4.842;2022-12-07T01:29:26;4.50;1.00
9885;DHT22;4981;50.966;4.842;2022-12-07T01:31:53;4.50;1.00
9885;DHT22;4981;50.966;4.842;2022-12-07T01:34:20;4.50;1.00
9885;DHT22;4981;50.966;4.842;2022-12-07T01:36:48;4.40;1.00
9885;DHT22;4981;50.966;4.842;2022-12-07T01:39:16;4.40;1.00
9885;DHT22;4981;50.966;4.842;2022-12-07T01:41:43;4.50;1.00
9885;DHT22;4981;50.966;4.842;2022-12-07T01:44:21;4.40;1.00
9885;DHT22;4981;50.966;4.842;2022-12-07T01:46:50;4.40;1.00
9885;DHT22;4981;50.966;4.842;2022-12-07T01:49:24;4.40;1.00
9885;DHT22;4981;50.966;4.842;2022-12-07T01:51:56;4.50;1.00
9885;DHT22;4981;50.966;4.842;2022-12-07T01:54:26;4.50;1.00
9885;DHT22;4981;50.966;4.842;2022-12-07T01:56:55;4.50;1.00
9885;DHT22;4981;50.966;4.842;2022-12-07T01:59:24;4.50;1.00
9885;DHT22;4981;50.966;4.842;2022-12-07T02:01:53;4.50;1.00
9885;DHT22;4981;50.966;4.842;2022-12-07T02:04:22;4.40;1.00
9885;DHT22;4981;50.966;4.842;2022-12-07T02:06:50;4.40;1.00
9885;DHT22;4981;50.966;4.842;2022-12-07T02:09:18;4.30;1.00
9885;DHT22;4981;50.966;4.842;2022-12-07T02:11:46;4.30;1.00
9885;DHT22;4981;50.966;4.842;2022-12-07T02:14:14;4.30;1.00
9885;DHT22;4981;50.966;4.842;2022-12-07T02:16:48;4.20;1.00
9885;DHT22;4981;50.966;4.842;2022-12-07T02:19:47;4.20;1.00
9885;DHT22;4981;50.966;4.842;2022-12-07T02:22:35;4.20;1.00
9885;DHT22;4981;50.966;4.842;2022-12-07T02:25:15;4.30;1.00
9885;DHT22;4981;50.966;4.842;2022-12-07T02:27:51;4.30;1.00
9885;DHT22;4981;50.966;4.842;2022-12-07T02:30:22;4.30;1.00
9885;DHT22;4981;50.966;4.842;2022-12-07T02:32:57;4.20;1.00
9885;DHT22;4981;50.966;4.842;2022-12-07T02:35:30;4.30;1.00
9885;DHT22;4981;50.966;4.842;2022-12-07T02:38:03;4.30;1.00
9885;DHT22;4981;50.966;4.842;2022-12-07T02:40:35;4.20;1.00
9885;DHT22;4981;50.966;4.842;2022-12-07T02:43:08;4.20;1.00
9885;DHT22;4981;50.966;4.842;2022-12-07T02:45:40;4.20;1.00
9885;DHT22;4981;50.966;4.842;2022-12-07T02:48:10;5.40;1.00
9885;DHT22;4981;50.966;4.842;2022-12-07T02:50:38;4.20;1.00
9885;DHT22;4981;50.966;4.842;2022-12-07T02:53:05;4.10;1.00
9885;DHT22;4981;50.966;4.842;2022-12-07T02:55:37;4.10;1.00
9885;DHT22;4981;50.966;4.842;2022-12-07T02:58:20;4.10;1.00
9885;DHT22;4981;50.966;4.842;2022-12-07T03:00:58;4.00;1.00
9885;DHT22;4981;50.966;4.842;2022-12-07T03:03:31;3.60;1.00
9885;DHT22;4981;50.966;4.842;2022-12-07T03:06:09;4.00;1.00
9885;DHT22;4981;50.966;4.842;2022-12-07T03:08:44;4.00;1.00
9885;DHT22;4981;50.966;4.842;2022-12-07T03:11:15;4.00;1.00
9885;DHT22;4981;50.966;4.842;2022-12-07T03:13:48;4.00;1.00
9885;DHT22;4981;50.966;4.842;2022-12-07T03:16:21;4.00;1.00
9885;DHT22;4981;50.966;4.842;2022-12-07T03:18:53;4.10;1.00
9885;DHT22;4981;50.966;4.842;2022-12-07T03:21:24;4.10;1.00
9885;DHT22;4981;50.966;4.842;2022-12-07T03:23:57;4.00;1.00
9885;DHT22;4981;50.966;4.842;2022-12-07T03:26:36;4.00;1.00
9885;DHT22;4981;50.966;4.842;2022-12-07T03:29:08;4.10;1.00
9885;DHT22;4981;50.966;4.842;2022-12-07T03:31:40;4.00;1.00
9885;DHT22;4981;50.966;4.842;2022-12-07T03:34:11;4.10;1.00
9885;DHT22;4981;50.966;4.842;2022-12-07T03:36:43;4.00;1.00
9885;DHT22;4981;50.966;4.842;2022-12-07T03:39:17;4.00;1.00
9885;DHT22;4981;50.966;4.842;2022-12-07T03:41:46;4.00;1.00
9885;DHT22;4981;50.966;4.842;2022-12-07T03:44:15;4.10;1.00
9885;DHT22;4981;50.966;4.842;2022-12-07T03:46:51;3.80;1.00
9885;DHT22;4981;50.966;4.842;2022-12-07T03:49:23;4.20;1.00
9885;DHT22;4981;50.966;4.842;2022-12-07T03:51:56;4.10;1.00
9885;DHT22;4981;50.966;4.842;2022-12-07T03:54:29;4.10;1.00
9885;DHT22;4981;50.966;4.842;2022-12-07T03:56:59;4.10;1.00
9885;DHT22;4981;50.966;4.842;2022-12-07T03:59:28;4.10;1.00
9885;DHT22;4981;50.966;4.842;2022-12-07T04:01:58;3.90;1.00
9885;DHT22;4981;50.966;4.842;2022-12-07T04:04:28;3.90;1.00
9885;DHT22;4981;50.966;4.842;2022-12-07T04:06:55;3.80;1.00
9885;DHT22;4981;50.966;4.842;2022-12-07T04:09:22;3.80;1.00
9885;DHT22;4981;50.966;4.842;2022-12-07T04:11:49;3.70;1.00
9885;DHT22;4981;50.966;4.842;2022-12-07T04:14:16;3.60;1.00
9885;DHT22;4981;50.966;4.842;2022-12-07T04:16:47;3.60;1.00
9885;DHT22;4981;50.966;4.842;2022-12-07T04:19:17;3.60;1.00
9885;DHT22;4981;50.966;4.842;2022-12-07T04:21:44;3.50;1.00
9885;DHT22;4981;50.966;4.842;2022-12-07T04:24:12;3.40;1.00
9885;DHT22;4981;50.966;4.842;2022-12-07T04:26:40;3.50;1.00
9885;DHT22;4981;50.966;4.842;2022-12-07T04:29:07;3.50;1.00
9885;DHT22;4981;50.966;4.842;2022-12-07T04:31:35;3.50;1.00
9885;DHT22;4981;50.966;4.842;2022-12-07T04:34:02;3.60;1.00
9885;DHT22;4981;50.966;4.842;2022-12-07T04:36:31;3.60;1.00
9885;DHT22;4981;50.966;4.842;2022-12-07T04:38:58;3.50;1.00
9885;DHT22;4981;50.966;4.842;2022-12-07T04:41:25;3.60;1.00
9885;DHT22;4981;50.966;4.842;2022-12-07T04:43:54;3.60;1.00
9885;DHT22;4981;50.966;4.842;2022-12-07T04:46:22;3.60;1.00
9885;DHT22;4981;50.966;4.842;2022-12-07T04:48:50;3.60;1.00
9885;DHT22;4981;50.966;4.842;2022-12-07T04:51:19;3.50;1.00
9885;DHT22;4981;50.966;4.842;2022-12-07T04:53:49;3.50;1.00
9885;DHT22;4981;50.966;4.842;2022-12-07T04:56:17;3.40;1.00
9885;DHT22;4981;50.966;4.842;2022-12-07T04:58:45;3.50;1.00
9885;DHT22;4981;50.966;4.842;2022-12-07T05:01:13;3.40;1.00
9885;DHT22;4981;50.966;4.842;2022-12-07T05:03:40;3.40;1.00
9885;DHT22;4981;50.966;4.842;2022-12-07T05:06:08;3.40;1.00
9885;DHT22;4981;50.966;4.842;2022-12-07T05:08:35;3.40;1.00
9885;DHT22;4981;50.966;4.842;2022-12-07T05:11:04;3.30;1.00
9885;DHT22;4981;50.966;4.842;2022-12-07T05:13:32;3.30;1.00
9885;DHT22;4981;50.966;4.842;2022-12-07T05:15:59;3.40;1.00
9885;DHT22;4981;50.966;4.842;2022-12-07T05:18:26;3.50;1.00
9885;DHT22;4981;50.966;4.842;2022-12-07T05:20:54;3.60;1.00
9885;DHT22;4981;50.966;4.842;2022-12-07T05:23:21;3.60;1.00
9885;DHT22;4981;50.966;4.842;2022-12-07T05:25:48;3.70;1.00
9885;DHT22;4981;50.966;4.842;2022-12-07T05:28:17;3.80;1.00
9885;DHT22;4981;50.966;4.842;2022-12-07T05:30:44;3.80;1.00
9885;DHT22;4981;50.966;4.842;2022-12-07T05:33:12;3.80;1.00
9885;DHT22;4981;50.966;4.842;2022-12-07T05:35:39;3.70;1.00
9885;DHT22;4981;50.966;4.842;2022-12-07T05:38:06;3.70;1.00
9885;DHT22;4981;50.966;4.842;2022-12-07T05:40:33;3.80;1.00
9885;DHT22;4981;50.966;4.842;2022-12-07T05:43:00;3.80;1.00
9885;DHT22;4981;50.966;4.842;2022-12-07T05:45:29;3.80;1.00
9885;DHT22;4981;50.966;4.842;2022-12-07T05:47:56;3.70;1.00
9885;DHT22;4981;50.966;4.842;2022-12-07T05:50:23;3.70;1.00
9885;DHT22;4981;50.966;4.842;2022-12-07T05:52:50;3.80;1.00
9885;DHT22;4981;50.966;4.842;2022-12-07T05:55:17;3.70;1.00
9885;DHT22;4981;50.966;4.842;2022-12-07T05:57:44;3.70;1.00
9885;DHT22;4981;50.966;4.842;2022-12-07T06:00:33;3.80;1.00
9885;DHT22;4981;50.966;4.842;2022-12-07T06:02:59;3.70;1.00
9885;DHT22;4981;50.966;4.842;2022-12-07T06:05:26;3.70;1.00
9885;DHT22;4981;50.966;4.842;2022-12-07T06:07:53;3.70;1.00
9885;DHT22;4981;50.966;4.842;2022-12-07T06:10:20;3.70;1.00
9885;DHT22;4981;50.966;4.842;2022-12-07T06:12:48;3.70;1.00
9885;DHT22;4981;50.966;4.842;2022-12-07T06:15:14;3.70;1.00
9885;DHT22;4981;50.966;4.842;2022-12-07T06:17:42;3.70;1.00
9885;DHT22;4981;50.966;4.842;2022-12-07T06:20:10;3.70;1.00
9885;DHT22;4981;50.966;4.842;2022-12-07T06:22:37;3.60;1.00
9885;DHT22;4981;50.966;4.842;2022-12-07T06:25:05;3.60;1.00
9885;DHT22;4981;50.966;4.842;2022-12-07T06:27:32;3.70;1.00
9885;DHT22;4981;50.966;4.842;2022-12-07T06:30:00;3.60;1.00
9885;DHT22;4981;50.966;4.842;2022-12-07T06:32:32;3.60;1.00
9885;DHT22;4981;50.966;4.842;2022-12-07T06:35:01;3.50;1.00
9885;DHT22;4981;50.966;4.842;2022-12-07T06:37:28;3.70;1.00
9885;DHT22;4981;50.966;4.842;2022-12-07T06:39:55;3.60;1.00
9885;DHT22;4981;50.966;4.842;2022-12-07T06:42:23;3.60;1.00
9885;DHT22;4981;50.966;4.842;2022-12-07T06:44:50;3.60;1.00
9885;DHT22;4981;50.966;4.842;2022-12-07T06:47:17;3.60;1.00
9885;DHT22;4981;50.966;4.842;2022-12-07T06:49:44;3.60;1.00
9885;DHT22;4981;50.966;4.842;2022-12-07T06:52:13;3.60;1.00
9885;DHT22;4981;50.966;4.842;2022-12-07T06:54:40;3.50;1.00
9885;DHT22;4981;50.966;4.842;2022-12-07T06:57:07;3.60;1.00
9885;DHT22;4981;50.966;4.842;2022-12-07T06:59:34;3.60;1.00
9885;DHT22;4981;50.966;4.842;2022-12-07T07:02:01;3.60;1.00
9885;DHT22;4981;50.966;4.842;2022-12-07T07:04:28;3.60;1.00
9885;DHT22;4981;50.966;4.842;2022-12-07T07:06:55;4.80;1.00
9885;DHT22;4981;50.966;4.842;2022-12-07T07:09:23;4.00;1.00
9885;DHT22;4981;50.966;4.842;2022-12-07T07:11:51;3.80;1.00
9885;DHT22;4981;50.966;4.842;2022-12-07T07:14:18;3.70;1.00
9885;DHT22;4981;50.966;4.842;2022-12-07T07:16:46;3.70;1.00
9885;DHT22;4981;50.966;4.842;2022-12-07T07:19:14;3.60;1.00
9885;DHT22;4981;50.966;4.842;2022-12-07T07:21:41;3.60;1.00
9885;DHT22;4981;50.966;4.842;2022-12-07T07:24:08;4.00;1.00
9885;DHT22;4981;50.966;4.842;2022-12-07T07:26:37;3.80;1.00
9885;DHT22;4981;50.966;4.842;2022-12-07T07:29:04;3.60;1.00
9885;DHT22;4981;50.966;4.842;2022-12-07T07:31:31;4.30;1.00
9885;DHT22;4981;50.966;4.842;2022-12-07T07:34:01;3.50;1.00
9885;DHT22;4981;50.966;4.842;2022-12-07T07:36:27;3.50;1.00
9885;DHT22;4981;50.966;4.842;2022-12-07T07:38:55;3.40;1.00
9885;DHT22;4981;50.966;4.842;2022-12-07T07:41:22;3.40;1.00
9885;DHT22;4981;50.966;4.842;2022-12-07T07:43:50;3.40;1.00
9885;DHT22;4981;50.966;4.842;2022-12-07T07:46:17;3.30;1.00
9885;DHT22;4981;50.966;4.842;2022-12-07T07:48:45;3.30;1.00
9885;DHT22;4981;50.966;4.842;2022-12-07T07:51:12;3.30;1.00
9885;DHT22;4981;50.966;4.842;2022-12-07T07:53:39;3.20;1.00
9885;DHT22;4981;50.966;4.842;2022-12-07T07:56:07;3.20;1.00
9885;DHT22;4981;50.966;4.842;2022-12-07T07:58:34;3.30;1.00
9885;DHT22;4981;50.966;4.842;2022-12-07T08:01:07;3.30;1.00
9885;DHT22;4981;50.966;4.842;2022-12-07T08:03:34;3.30;1.00
9885;DHT22;4981;50.966;4.842;2022-12-07T08:06:02;4.20;1.00
9885;DHT22;4981;50.966;4.842;2022-12-07T08:08:29;3.10;1.00
9885;DHT22;4981;50.966;4.842;2022-12-07T08:10:56;3.20;1.00
9885;DHT22;4981;50.966;4.842;2022-12-07T08:13:26;3.30;1.00
9885;DHT22;4981;50.966;4.842;2022-12-07T08:15:53;3.30;1.00
9885;DHT22;4981;50.966;4.842;2022-12-07T08:18:21;3.40;1.00
9885;DHT22;4981;50.966;4.842;2022-12-07T08:20:48;3.50;1.00
9885;DHT22;4981;50.966;4.842;2022-12-07T08:23:15;3.60;1.00
9885;DHT22;4981;50.966;4.842;2022-12-07T08:25:42;3.60;1.00
9885;DHT22;4981;50.966;4.842;2022-12-07T08:28:09;3.70;1.00
9885;DHT22;4981;50.966;4.842;2022-12-07T08:30:36;3.80;1.00
9885;DHT22;4981;50.966;4.842;2022-12-07T08:33:03;3.90;1.00
9885;DHT22;4981;50.966;4.842;2022-12-07T08:35:34;4.10;1.00
9885;DHT22;4981;50.966;4.842;2022-12-07T08:38:02;4.00;1.00
9885;DHT22;4981;50.966;4.842;2022-12-07T08:40:30;3.90;1.00
9885;DHT22;4981;50.966;4.842;2022-12-07T08:42:57;3.90;1.00
9885;DHT22;4981;50.966;4.842;2022-12-07T08:45:24;3.90;1.00
9885;DHT22;4981;50.966;4.842;2022-12-07T08:47:55;3.90;1.00
9885;DHT22;4981;50.966;4.842;2022-12-07T08:50:24;3.80;1.00
9885;DHT22;4981;50.966;4.842;2022-12-07T08:52:54;3.80;1.00
9885;DHT22;4981;50.966;4.842;2022-12-07T08:55:22;3.80;1.00
9885;DHT22;4981;50.966;4.842;2022-12-07T08:57:50;3.80;1.00
9885;DHT22;4981;50.966;4.842;2022-12-07T09:00:18;3.80;1.00
9885;DHT22;4981;50.966;4.842;2022-12-07T09:02:45;3.80;1.00
9885;DHT22;4981;50.966;4.842;2022-12-07T09:05:13;3.80;1.00
9885;DHT22;4981;50.966;4.842;2022-12-07T09:07:42;3.80;1.00
9885;DHT22;4981;50.966;4.842;2022-12-07T09:10:11;3.90;1.00
9885;DHT22;4981;50.966;4.842;2022-12-07T09:12:38;3.90;1.00
9885;DHT22;4981;50.966;4.842;2022-12-07T09:15:06;3.90;1.00
9885;DHT22;4981;50.966;4.842;2022-12-07T09:17:34;3.90;1.00
9885;DHT22;4981;50.966;4.842;2022-12-07T09:20:03;4.00;1.00
9885;DHT22;4981;50.966;4.842;2022-12-07T09:22:30;4.10;1.00
9885;DHT22;4981;50.966;4.842;2022-12-07T09:24:57;4.20;1.00
9885;DHT22;4981;50.966;4.842;2022-12-07T09:27:27;4.10;1.00
9885;DHT22;4981;50.966;4.842;2022-12-07T09:29:54;4.30;1.00
9885;DHT22;4981;50.966;4.842;2022-12-07T09:32:22;4.20;1.00
9885;DHT22;4981;50.966;4.842;2022-12-07T09:34:49;4.30;1.00
9885;DHT22;4981;50.966;4.842;2022-12-07T09:37:17;4.20;1.00
9885;DHT22;4981;50.966;4.842;2022-12-07T09:39:44;4.20;1.00
9885;DHT22;4981;50.966;4.842;2022-12-07T09:42:24;4.20;1.00
9885;DHT22;4981;50.966;4.842;2022-12-07T09:44:54;4.30;1.00
9885;DHT22;4981;50.966;4.842;2022-12-07T09:47:21;4.40;1.00
9885;DHT22;4981;50.966;4.842;2022-12-07T09:49:49;4.60;1.00
9885;DHT22;4981;50.966;4.842;2022-12-07T09:52:20;4.70;1.00
9885;DHT22;4981;50.966;4.842;2022-12-07T09:54:52;4.80;1.00
9885;DHT22;4981;50.966;4.842;2022-12-07T09:57:28;4.60;1.00
9885;DHT22;4981;50.966;4.842;2022-12-07T10:00:02;4.70;1.00
9885;DHT22;4981;50.966;4.842;2022-12-07T10:02:37;4.80;1.00
9885;DHT22;4981;50.966;4.842;2022-12-07T10:05:06;4.70;1.00
9885;DHT22;4981;50.966;4.842;2022-12-07T10:07:33;4.60;1.00
9885;DHT22;4981;50.966;4.842;2022-12-07T10:10:03;4.60;1.00
9885;DHT22;4981;50.966;4.842;2022-12-07T10:12:30;4.60;1.00
9885;DHT22;4981;50.966;4.842;2022-12-07T10:15:01;4.60;1.00
9885;DHT22;4981;50.966;4.842;2022-12-07T10:17:32;4.80;1.00
9885;DHT22;4981;50.966;4.842;2022-12-07T10:20:18;4.80;1.00
9885;DHT22;4981;50.966;4.842;2022-12-07T10:22:56;5.00;1.00
9885;DHT22;4981;50.966;4.842;2022-12-07T10:25:27;5.10;1.00
9885;DHT22;4981;50.966;4.842;2022-12-07T10:28:00;5.10;1.00
9885;DHT22;4981;50.966;4.842;2022-12-07T10:30:29;5.10;1.00
9885;DHT22;4981;50.966;4.842;2022-12-07T10:32:57;5.20;1.00
9885;DHT22;4981;50.966;4.842;2022-12-07T10:35:26;5.20;1.00
9885;DHT22;4981;50.966;4.842;2022-12-07T10:37:55;5.30;1.00
9885;DHT22;4981;50.966;4.842;2022-12-07T10:40:26;5.30;1.00
9885;DHT22;4981;50.966;4.842;2022-12-07T10:43:05;5.30;1.00
9885;DHT22;4981;50.966;4.842;2022-12-07T10:45:35;5.30;1.00
9885;DHT22;4981;50.966;4.842;2022-12-07T10:48:12;5.30;1.00
9885;DHT22;4981;50.966;4.842;2022-12-07T10:50:59;5.30;1.00
9885;DHT22;4981;50.966;4.842;2022-12-07T10:53:39;5.20;1.00
9885;DHT22;4981;50.966;4.842;2022-12-07T10:56:35;5.20;1.00
9885;DHT22;4981;50.966;4.842;2022-12-07T10:59:29;5.20;1.00
9885;DHT22;4981;50.966;4.842;2022-12-07T11:02:14;5.30;1.00
9885;DHT22;4981;50.966;4.842;2022-12-07T11:05:06;4.30;1.00
9885;DHT22;4981;50.966;4.842;2022-12-07T11:07:48;5.40;1.00
9885;DHT22;4981;50.966;4.842;2022-12-07T11:10:19;5.50;1.00
9885;DHT22;4981;50.966;4.842;2022-12-07T11:13:12;5.90;1.00
9885;DHT22;4981;50.966;4.842;2022-12-07T11:15:53;5.70;1.00
9885;DHT22;4981;50.966;4.842;2022-12-07T11:18:26;5.80;1.00
9885;DHT22;4981;50.966;4.842;2022-12-07T11:20:59;5.90;1.00
9885;DHT22;4981;50.966;4.842;2022-12-07T11:23:45;6.10;1.00
9885;DHT22;4981;50.966;4.842;2022-12-07T11:26:23;6.00;1.00
9885;DHT22;4981;50.966;4.842;2022-12-07T11:29:08;6.10;1.00
9885;DHT22;4981;50.966;4.842;2022-12-07T11:31:53;6.10;1.00
9885;DHT22;4981;50.966;4.842;2022-12-07T11:34:33;6.20;1.00
9885;DHT22;4981;50.966;4.842;2022-12-07T11:37:07;6.20;1.00
9885;DHT22;4981;50.966;4.842;2022-12-07T11:39:42;6.20;1.00
9885;DHT22;4981;50.966;4.842;2022-12-07T11:42:15;6.30;1.00
9885;DHT22;4981;50.966;4.842;2022-12-07T11:44:49;6.30;1.00
9885;DHT22;4981;50.966;4.842;2022-12-07T11:47:24;6.20;1.00
9885;DHT22;4981;50.966;4.842;2022-12-07T11:50:01;6.20;1.00
9885;DHT22;4981;50.966;4.842;2022-12-07T11:52:36;6.30;1.00
9885;DHT22;4981;50.966;4.842;2022-12-07T11:55:19;6.30;1.00
9885;DHT22;4981;50.966;4.842;2022-12-07T11:57:51;6.20;1.00
9885;DHT22;4981;50.966;4.842;2022-12-07T12:00:21;6.10;1.00
9885;DHT22;4981;50.966;4.842;2022-12-07T12:02:52;5.90;1.00
9885;DHT22;4981;50.966;4.842;2022-12-07T12:05:24;5.50;1.00
9885;DHT22;4981;50.966;4.842;2022-12-07T12:07:56;5.40;1.00
9885;DHT22;4981;50.966;4.842;2022-12-07T12:10:35;5.50;1.00
9885;DHT22;4981;50.966;4.842;2022-12-07T12:13:27;5.50;1.00
9885;DHT22;4981;50.966;4.842;2022-12-07T12:16:18;5.60;1.00
9885;DHT22;4981;50.966;4.842;2022-12-07T12:18:57;5.60;1.00
9885;DHT22;4981;50.966;4.842;2022-12-07T12:21:30;5.70;1.00
9885;DHT22;4981;50.966;4.842;2022-12-07T12:24:00;5.70;1.00
9885;DHT22;4981;50.966;4.842;2022-12-07T12:26:30;5.70;1.00
9885;DHT22;4981;50.966;4.842;2022-12-07T12:28:59;5.80;1.00
9885;DHT22;4981;50.966;4.842;2022-12-07T12:31:46;5.80;1.00
9885;DHT22;4981;50.966;4.842;2022-12-07T12:34:38;5.80;1.00
9885;DHT22;4981;50.966;4.842;2022-12-07T12:37:39;5.80;1.00
9885;DHT22;4981;50.966;4.842;2022-12-07T12:40:41;5.80;1.00
9885;DHT22;4981;50.966;4.842;2022-12-07T12:43:43;5.90;1.00
9885;DHT22;4981;50.966;4.842;2022-12-07T12:46:37;5.90;1.00
9885;DHT22;4981;50.966;4.842;2022-12-07T12:49:33;5.90;1.00
9885;DHT22;4981;50.966;4.842;2022-12-07T12:52:27;5.90;1.00
9885;DHT22;4981;50.966;4.842;2022-12-07T12:55:00;6.00;1.00
9885;DHT22;4981;50.966;4.842;2022-12-07T12:57:33;6.10;1.00
9885;DHT22;4981;50.966;4.842;2022-12-07T13:00:15;6.10;1.00
9885;DHT22;4981;50.966;4.842;2022-12-07T13:02:48;6.10;1.00
9885;DHT22;4981;50.966;4.842;2022-12-07T13:05:19;6.20;1.00
9885;DHT22;4981;50.966;4.842;2022-12-07T13:07:54;6.20;1.00
9885;DHT22;4981;50.966;4.842;2022-12-07T13:10:32;6.20;1.00
9885;DHT22;4981;50.966;4.842;2022-12-07T13:13:02;6.20;1.00
9885;DHT22;4981;50.966;4.842;2022-12-07T13:15:38;6.20;1.00
9885;DHT22;4981;50.966;4.842;2022-12-07T13:18:23;6.20;1.00
9885;DHT22;4981;50.966;4.842;2022-12-07T13:20:55;6.20;1.00
9885;DHT22;4981;50.966;4.842;2022-12-07T13:23:25;6.10;1.00
9885;DHT22;4981;50.966;4.842;2022-12-07T13:28:43;6.10;1.00
9885;DHT22;4981;50.966;4.842;2022-12-07T13:36:53;6.10;1.00
9885;DHT22;4981;50.966;4.842;2022-12-07T13:39:21;6.00;1.00
9885;DHT22;4981;50.966;4.842;2022-12-07T13:41:52;6.00;1.00
9885;DHT22;4981;50.966;4.842;2022-12-07T13:44:21;5.90;1.00
9885;DHT22;4981;50.966;4.842;2022-12-07T13:47:03;5.90;1.00
9885;DHT22;4981;50.966;4.842;2022-12-07T13:49:39;5.70;1.00
9885;DHT22;4981;50.966;4.842;2022-12-07T13:52:15;5.60;1.00
9885;DHT22;4981;50.966;4.842;2022-12-07T13:54:47;5.50;1.00
9885;DHT22;4981;50.966;4.842;2022-12-07T13:57:17;5.50;1.00
9885;DHT22;4981;50.966;4.842;2022-12-07T13:59:44;5.40;1.00
9885;DHT22;4981;50.966;4.842;2022-12-07T14:02:19;5.50;1.00
9885;DHT22;4981;50.966;4.842;2022-12-07T14:04:48;5.50;1.00
9885;DHT22;4981;50.966;4.842;2022-12-07T14:07:22;5.50;1.00
9885;DHT22;4981;50.966;4.842;2022-12-07T14:09:55;5.50;1.00
9885;DHT22;4981;50.966;4.842;2022-12-07T14:12:25;5.50;1.00
9885;DHT22;4981;50.966;4.842;2022-12-07T14:14:54;5.60;1.00
9885;DHT22;4981;50.966;4.842;2022-12-07T14:17:23;5.50;1.00
9885;DHT22;4981;50.966;4.842;2022-12-07T14:19:52;5.50;1.00
9885;DHT22;4981;50.966;4.842;2022-12-07T14:22:29;5.50;1.00
9885;DHT22;4981;50.966;4.842;2022-12-07T14:25:16;5.50;1.00
9885;DHT22;4981;50.966;4.842;2022-12-07T14:27:53;5.50;1.00
9885;DHT22;4981;50.966;4.842;2022-12-07T14:30:23;5.40;1.00
9885;DHT22;4981;50.966;4.842;2022-12-07T14:32:53;5.40;1.00
9885;DHT22;4981;50.966;4.842;2022-12-07T14:35:21;5.40;1.00
9885;DHT22;4981;50.966;4.842;2022-12-07T14:37:49;5.30;1.00
9885;DHT22;4981;50.966;4.842;2022-12-07T14:40:19;4.90;1.00
9885;DHT22;4981;50.966;4.842;2022-12-07T14:42:50;4.70;1.00
9885;DHT22;4981;50.966;4.842;2022-12-07T14:45:20;4.80;1.00
9885;DHT22;4981;50.966;4.842;2022-12-07T14:47:47;4.60;1.00
9885;DHT22;4981;50.966;4.842;2022-12-07T14:50:16;4.50;1.00
9885;DHT22;4981;50.966;4.842;2022-12-07T14:52:46;4.50;1.00
9885;DHT22;4981;50.966;4.842;2022-12-07T14:55:22;4.40;1.00
9885;DHT22;4981;50.966;4.842;2022-12-07T14:57:53;4.40;1.00
9885;DHT22;4981;50.966;4.842;2022-12-07T15:00:21;4.40;1.00
9885;DHT22;4981;50.966;4.842;2022-12-07T15:02:49;5.30;1.00
9885;DHT22;4981;50.966;4.842;2022-12-07T15:05:17;4.40;1.00
9885;DHT22;4981;50.966;4.842;2022-12-07T15:07:46;4.70;1.00
9885;DHT22;4981;50.966;4.842;2022-12-07T15:10:16;4.60;1.00
9885;DHT22;4981;50.966;4.842;2022-12-07T15:12:43;4.50;1.00
9885;DHT22;4981;50.966;4.842;2022-12-07T15:15:12;4.60;1.00
9885;DHT22;4981;50.966;4.842;2022-12-07T15:17:39;4.60;1.00
9885;DHT22;4981;50.966;4.842;2022-12-07T15:20:09;4.60;1.00
9885;DHT22;4981;50.966;4.842;2022-12-07T15:22:37;4.50;1.00
9885;DHT22;4981;50.966;4.842;2022-12-07T15:25:05;4.50;1.00
9885;DHT22;4981;50.966;4.842;2022-12-07T15:27:33;4.50;1.00
9885;DHT22;4981;50.966;4.842;2022-12-07T15:30:00;4.50;1.00
9885;DHT22;4981;50.966;4.842;2022-12-07T15:32:29;4.30;1.00
9885;DHT22;4981;50.966;4.842;2022-12-07T15:34:57;4.30;1.00
9885;DHT22;4981;50.966;4.842;2022-12-07T15:37:24;4.30;1.00
9885;DHT22;4981;50.966;4.842;2022-12-07T15:39:51;4.20;1.00
9885;DHT22;4981;50.966;4.842;2022-12-07T15:42:18;4.20;1.00
9885;DHT22;4981;50.966;4.842;2022-12-07T15:44:45;4.20;1.00
9885;DHT22;4981;50.966;4.842;2022-12-07T15:47:31;4.10;1.00
9885;DHT22;4981;50.966;4.842;2022-12-07T15:49:59;4.10;1.00
9885;DHT22;4981;50.966;4.842;2022-12-07T15:52:26;4.10;1.00
9885;DHT22;4981;50.966;4.842;2022-12-07T15:54:53;4.20;1.00
9885;DHT22;4981;50.966;4.842;2022-12-07T15:57:20;4.10;1.00
9885;DHT22;4981;50.966;4.842;2022-12-07T15:59:48;4.00;1.00
9885;DHT22;4981;50.966;4.842;2022-12-07T16:02:15;3.60;1.00
9885;DHT22;4981;50.966;4.842;2022-12-07T16:04:43;4.10;1.00
9885;DHT22;4981;50.966;4.842;2022-12-07T16:07:10;4.00;1.00
9885;DHT22;4981;50.966;4.842;2022-12-07T16:09:41;4.00;1.00
9885;DHT22;4981;50.966;4.842;2022-12-07T16:12:08;4.10;1.00
9885;DHT22;4981;50.966;4.842;2022-12-07T16:14:36;4.00;1.00
9885;DHT22;4981;50.966;4.842;2022-12-07T16:17:03;4.00;1.00
9885;DHT22;4981;50.966;4.842;2022-12-07T16:19:31;4.20;1.00
9885;DHT22;4981;50.966;4.842;2022-12-07T16:21:59;4.00;1.00
9885;DHT22;4981;50.966;4.842;2022-12-07T16:24:27;4.10;1.00
9885;DHT22;4981;50.966;4.842;2022-12-07T16:26:54;4.00;1.00
9885;DHT22;4981;50.966;4.842;2022-12-07T16:29:22;4.10;1.00
9885;DHT22;4981;50.966;4.842;2022-12-07T16:31:50;4.10;1.00
9885;DHT22;4981;50.966;4.842;2022-12-07T16:34:18;4.10;1.00
9885;DHT22;4981;50.966;4.842;2022-12-07T16:36:45;4.20;1.00
9885;DHT22;4981;50.966;4.842;2022-12-07T16:39:14;4.20;1.00
9885;DHT22;4981;50.966;4.842;2022-12-07T16:41:41;4.10;1.00
9885;DHT22;4981;50.966;4.842;2022-12-07T16:44:11;4.10;1.00
9885;DHT22;4981;50.966;4.842;2022-12-07T16:46:39;4.20;1.00
9885;DHT22;4981;50.966;4.842;2022-12-07T16:49:08;4.20;1.00
9885;DHT22;4981;50.966;4.842;2022-12-07T16:51:37;4.20;1.00
9885;DHT22;4981;50.966;4.842;2022-12-07T16:54:05;4.20;1.00
9885;DHT22;4981;50.966;4.842;2022-12-07T16:56:33;4.20;1.00
9885;DHT22;4981;50.966;4.842;2022-12-07T16:59:00;4.20;1.00
9885;DHT22;4981;50.966;4.842;2022-12-07T17:01:28;4.20;1.00
9885;DHT22;4981;50.966;4.842;2022-12-07T17:03:56;4.20;1.00
9885;DHT22;4981;50.966;4.842;2022-12-07T17:06:25;4.20;1.00